createdAt,value
2018-05-12T00:05:13.397Z,100967
2018-05-12T00:10:25.738Z,100960
2018-05-12T00:15:29.925Z,100961
2018-05-12T00:20:33.206Z,100966
2018-05-12T00:25:39.086Z,100969
2018-05-12T00:30:46.691Z,100965
2018-05-12T00:35:50.944Z,100959
2018-05-12T00:41:06.126Z,100958
2018-05-12T00:46:10.130Z,100954
2018-05-12T00:51:15.157Z,100954
2018-05-12T00:56:18.335Z,100954
2018-05-12T01:01:22.557Z,100952
2018-05-12T01:06:25.911Z,100945
2018-05-12T01:11:35.428Z,100944
2018-05-12T01:16:40.503Z,100947
2018-05-12T01:21:47.148Z,100937
2018-05-12T01:26:50.502Z,100938
2018-05-12T01:31:54.574Z,100927
2018-05-12T01:36:58.600Z,100929
2018-05-12T01:42:03.508Z,100934
2018-05-12T01:58:25.434Z,100935
2018-05-12T02:04:07.905Z,100933
2018-05-12T02:09:16.147Z,100925
2018-05-12T02:14:19.328Z,100923
2018-05-12T02:19:23.386Z,100923
2018-05-12T02:24:28.058Z,100926
2018-05-12T02:35:22.383Z,100921
2018-05-12T02:40:27.200Z,100930
2018-05-12T02:45:34.222Z,100922
2018-05-12T02:50:49.178Z,100923
2018-05-12T02:56:30.779Z,100933
2018-05-12T03:01:34.473Z,100928
2018-05-12T03:07:19.233Z,100930
2018-05-12T03:18:00.753Z,100923
2018-05-12T03:23:07.284Z,100928
2018-05-12T03:33:47.711Z,100926
2018-05-12T03:38:52.396Z,100935
2018-05-12T03:43:57.231Z,100927
2018-05-12T03:49:04.795Z,100937
2018-05-12T03:54:09.443Z,100936
2018-05-12T03:59:13.714Z,100939
2018-05-12T04:04:37.249Z,100942
2018-05-12T04:10:05.473Z,100943
2018-05-12T04:15:10.739Z,100945
2018-05-12T04:20:14.308Z,100950
2018-05-12T04:25:19.140Z,100947
2018-05-12T04:30:42.261Z,100951
2018-05-12T04:35:46.672Z,100953
2018-05-12T04:40:49.871Z,100944
2018-05-12T04:45:53.909Z,100943
2018-05-12T04:50:57.226Z,100945
2018-05-12T04:56:00.790Z,100946
2018-05-12T05:01:03.899Z,100950
2018-05-12T05:06:24.060Z,100939
2018-05-12T05:11:28.430Z,100942
2018-05-12T05:16:32.265Z,100948
2018-05-12T05:21:35.358Z,100959
2018-05-12T05:26:38.869Z,100962
2018-05-12T05:31:42.358Z,100965
2018-05-12T05:36:45.469Z,100960
2018-05-12T05:41:48.554Z,100962
2018-05-12T05:46:52.976Z,100962
2018-05-12T05:51:57.404Z,100966
2018-05-12T05:57:00.890Z,100960
2018-05-12T06:02:04.678Z,100956
2018-05-12T06:07:08.152Z,100953
2018-05-12T06:12:11.217Z,100964
2018-05-12T06:17:14.706Z,100959
2018-05-12T06:22:17.781Z,100958
2018-05-12T06:27:20.883Z,100960
2018-05-12T06:32:24.362Z,100961
2018-05-12T06:37:28.230Z,100957
2018-05-12T06:42:31.318Z,100957
2018-05-12T06:47:35.173Z,100960
2018-05-12T06:52:39.822Z,100949
2018-05-12T06:57:43.632Z,100953
2018-05-12T07:02:48.080Z,100952
2018-05-12T07:07:51.581Z,100945
2018-05-12T07:12:55.435Z,100951
2018-05-12T07:17:58.956Z,100943
2018-05-12T07:23:02.041Z,100944
2018-05-12T07:28:06.504Z,100945
2018-05-12T07:33:09.610Z,100939
2018-05-12T07:38:12.681Z,100949
2018-05-12T07:43:17.121Z,100944
2018-05-12T07:48:20.602Z,100946
2018-05-12T07:53:24.549Z,100940
2018-05-12T07:58:28.996Z,100943
2018-05-12T08:03:39.036Z,100932
2018-05-12T08:08:43.552Z,100929
2018-05-12T08:13:47.670Z,100928
2018-05-12T08:18:51.527Z,100931
2018-05-12T08:23:55.971Z,100927
2018-05-12T08:28:59.081Z,100918
2018-05-12T08:34:02.203Z,100908
2018-05-12T08:39:06.801Z,100910
2018-05-12T08:44:11.582Z,100893
2018-05-12T08:49:14.665Z,100900
2018-05-12T08:54:18.141Z,100895
2018-05-12T08:59:22.634Z,100891
2018-05-12T09:04:26.158Z,100871
2018-05-12T09:09:30.641Z,100876
2018-05-12T09:14:35.231Z,100874
2018-05-12T09:19:39.106Z,100875
2018-05-12T09:24:42.948Z,100875
2018-05-12T09:29:46.026Z,100878
2018-05-12T09:34:50.473Z,100865
2018-05-12T09:39:55.071Z,100859
2018-05-12T09:44:58.549Z,100851
2018-05-12T09:50:01.654Z,100851
2018-05-12T09:55:06.090Z,100833
2018-05-12T10:00:10.522Z,100827
2018-05-12T10:05:14.009Z,100831
2018-05-12T10:10:18.444Z,100817
2018-05-12T10:15:22.883Z,100814
2018-05-12T10:20:27.357Z,100811
2018-05-12T10:25:31.781Z,100804
2018-05-12T10:30:34.865Z,100803
2018-05-12T10:35:38.718Z,100791
2018-05-12T10:40:42.561Z,100788
2018-05-12T10:45:45.645Z,100783
2018-05-12T10:50:48.729Z,100783
2018-05-12T10:55:51.829Z,100780
2018-05-12T11:00:55.683Z,100766
2018-05-12T11:05:59.175Z,100757
2018-05-12T11:11:03.616Z,100755
2018-05-12T11:16:07.243Z,100744
2018-05-12T11:21:10.181Z,100732
2018-05-12T11:26:13.273Z,100737
2018-05-12T11:31:16.372Z,100729
2018-05-12T11:36:19.458Z,100723
2018-05-12T11:41:23.303Z,100714
2018-05-12T11:46:26.382Z,100703
2018-05-12T11:51:29.918Z,100703
2018-05-12T11:56:34.106Z,100691
2018-05-12T12:01:37.953Z,100689
2018-05-12T12:06:42.394Z,100688
2018-05-12T12:11:46.614Z,100696
2018-05-12T12:16:50.834Z,100688
2018-05-12T12:21:53.907Z,100677
2018-05-12T12:26:58.129Z,100668
2018-05-12T12:32:01.218Z,100669
2018-05-12T12:37:05.429Z,100665
2018-05-12T12:42:09.653Z,100664
2018-05-12T12:47:13.517Z,100660
2018-05-12T12:52:17.962Z,100656
2018-05-12T12:57:22.554Z,100648
2018-05-12T13:02:25.649Z,100649
2018-05-12T13:07:28.733Z,100640
2018-05-12T13:12:31.819Z,100636
2018-05-12T13:17:36.869Z,100626
2018-05-12T13:22:41.626Z,100626
2018-05-12T13:27:45.215Z,100618
2018-05-12T13:32:49.568Z,100614
2018-05-12T13:37:54.017Z,100605
2018-05-12T13:42:57.115Z,100606
2018-05-12T13:48:01.346Z,100595
2018-05-12T13:53:06.220Z,100587
2018-05-12T13:58:09.705Z,100585
2018-05-12T14:03:12.790Z,100573
2018-05-12T14:08:15.883Z,100573
2018-05-12T14:13:20.316Z,100578
2018-05-12T14:18:24.165Z,100574
2018-05-12T14:23:28.596Z,100569
2018-05-12T14:28:33.016Z,100563
2018-05-12T14:33:37.461Z,100561
2018-05-12T14:38:42.054Z,100555
2018-05-12T14:43:46.519Z,100552
2018-05-12T14:48:49.998Z,100548
2018-05-12T14:53:54.263Z,100541
2018-05-12T14:58:57.367Z,100544
2018-05-12T15:04:00.458Z,100536
2018-05-12T15:09:04.697Z,100532
2018-05-12T15:14:09.613Z,100528
2018-05-12T15:19:13.841Z,100517
2018-05-12T15:24:16.942Z,100514
2018-05-12T15:29:21.182Z,100507
2018-05-12T15:34:24.269Z,100500
2018-05-12T15:39:28.713Z,100499
2018-05-12T15:44:32.557Z,100489
2018-05-12T15:49:35.641Z,100482
2018-05-12T15:54:38.730Z,100480
2018-05-12T15:59:41.827Z,100469
2018-05-12T16:04:46.389Z,100473
2018-05-12T16:09:49.864Z,100467
2018-05-12T16:14:52.978Z,100458
2018-05-12T16:19:57.198Z,100461
2018-05-12T16:25:00.676Z,100450
2018-05-12T16:30:04.531Z,100447
2018-05-12T16:35:08.426Z,100442
2018-05-12T16:40:12.869Z,100435
2018-05-12T16:45:15.969Z,100423
2018-05-12T16:50:19.858Z,100419
2018-05-12T16:55:23.327Z,100428
2018-05-12T17:00:27.389Z,100418
2018-05-12T17:05:30.897Z,100415
2018-05-12T17:10:34.363Z,100412
2018-05-12T17:15:37.666Z,100410
2018-05-12T17:20:40.747Z,100412
2018-05-12T17:25:45.959Z,100412
2018-05-12T17:30:49.437Z,100405
2018-05-12T17:35:53.295Z,100401
2018-05-12T17:40:57.706Z,100402
2018-05-12T17:46:01.567Z,100392
2018-05-12T17:51:05.788Z,100391
2018-05-12T17:56:10.227Z,100388
2018-05-12T18:01:14.525Z,100390
2018-05-12T18:06:19.125Z,100380
2018-05-12T18:11:22.225Z,100385
2018-05-12T18:16:26.083Z,100388
2018-05-12T18:21:30.543Z,100385
2018-05-12T18:26:34.988Z,100379
2018-05-12T18:31:38.465Z,100377
2018-05-12T18:36:41.553Z,100374
2018-05-12T18:41:44.634Z,100381
2018-05-12T18:46:48.869Z,100372
2018-05-12T18:51:53.261Z,100379
2018-05-12T18:56:57.686Z,100380
2018-05-12T19:02:01.924Z,100386
2018-05-12T19:07:05.408Z,100377
2018-05-12T19:12:09.861Z,100382
2018-05-12T19:17:14.858Z,100384
2018-05-12T19:22:19.182Z,100388
2018-05-12T19:27:22.616Z,100384
2018-05-12T19:32:27.194Z,100382
2018-05-12T19:37:31.841Z,100382
2018-05-12T19:42:35.695Z,100384
2018-05-12T19:47:39.027Z,100389
2018-05-12T19:52:43.307Z,100390
2018-05-12T19:57:47.858Z,100387
2018-05-12T20:02:51.369Z,100387
2018-05-12T20:07:55.168Z,100390
2018-05-12T20:12:59.685Z,100387
2018-05-12T20:18:03.291Z,100386
2018-05-12T20:23:07.713Z,100389
2018-05-12T20:28:12.041Z,100383
2018-05-12T20:33:16.494Z,100378
2018-05-12T20:38:20.386Z,100390
2018-05-12T20:43:23.877Z,100387
2018-05-12T20:48:27.352Z,100381
2018-05-12T20:53:31.258Z,100384
2018-05-12T20:58:35.125Z,100382
2018-05-12T21:03:38.646Z,100381
2018-05-12T21:08:46.238Z,100378
2018-05-12T21:13:49.363Z,100370
2018-05-12T21:18:52.476Z,100371
2018-05-12T21:23:55.667Z,100364
2018-05-12T21:28:59.894Z,100364
2018-05-12T21:34:03.078Z,100370
2018-05-12T21:39:07.786Z,100366
2018-05-12T21:44:12.394Z,100364
2018-05-12T21:49:15.478Z,100360
2018-05-12T21:54:18.574Z,100363
2018-05-12T21:59:22.458Z,100357
2018-05-12T22:04:25.577Z,100350
2018-05-12T22:09:30.798Z,100350
2018-05-12T22:14:35.221Z,100349
2018-05-12T22:19:39.878Z,100349
2018-05-12T22:24:44.076Z,100348
2018-05-12T22:29:47.221Z,100343
2018-05-12T22:34:50.318Z,100338
2018-05-12T22:39:54.215Z,100335
2018-05-12T22:44:57.684Z,100323
2018-05-12T22:50:00.847Z,100327
2018-05-12T22:55:03.991Z,100325
2018-05-12T23:00:07.921Z,100327
2018-05-12T23:05:11.035Z,100320
2018-05-12T23:10:15.392Z,100315
2018-05-12T23:15:19.712Z,100323
2018-05-12T23:20:22.943Z,100322
2018-05-12T23:25:27.704Z,100318
2018-05-12T23:30:31.958Z,100323
2018-05-12T23:35:35.280Z,100320
2018-05-12T23:40:39.132Z,100316
2018-05-12T23:45:42.655Z,100322
2018-05-12T23:50:45.743Z,100307
2018-05-12T23:55:49.591Z,100310
